sensor_id;sensor_type;location;lat;lon;timestamp;pressure;altitude;pressure_sealevel;temperature;humidity
50368;BME280;36281;34.132;-118.018;2022-10-18T00:00:52;99855.25;;;27.44;43.21
50368;BME280;36281;34.132;-118.018;2022-10-18T00:03:20;99864.38;;;27.40;42.88
50368;BME280;36281;34.132;-118.018;2022-10-18T00:05:48;99861.84;;;27.35;43.10
50368;BME280;36281;34.132;-118.018;2022-10-18T00:08:17;99854.53;;;27.26;43.25
50368;BME280;36281;34.132;-118.018;2022-10-18T00:10:47;99859.47;;;27.24;43.62
50368;BME280;36281;34.132;-118.018;2022-10-18T00:13:16;99848.13;;;27.22;43.67
50368;BME280;36281;34.132;-118.018;2022-10-18T00:15:47;99851.81;;;27.18;43.56
50368;BME280;36281;34.132;-118.018;2022-10-18T00:18:15;99850.69;;;27.10;43.70
50368;BME280;36281;34.132;-118.018;2022-10-18T00:20:43;99853.75;;;27.09;43.67
50368;BME280;36281;34.132;-118.018;2022-10-18T00:23:11;99855.81;;;27.03;43.61
50368;BME280;36281;34.132;-118.018;2022-10-18T00:25:40;99851.66;;;26.97;43.83
50368;BME280;36281;34.132;-118.018;2022-10-18T00:28:09;99851.31;;;26.90;43.80
50368;BME280;36281;34.132;-118.018;2022-10-18T00:30:38;99850.53;;;26.89;44.17
50368;BME280;36281;34.132;-118.018;2022-10-18T00:33:06;99845.91;;;26.81;44.01
50368;BME280;36281;34.132;-118.018;2022-10-18T00:35:34;99848.97;;;26.71;44.05
50368;BME280;36281;34.132;-118.018;2022-10-18T00:38:02;99854.56;;;26.66;44.62
50368;BME280;36281;34.132;-118.018;2022-10-18T00:40:30;99831.81;;;26.36;44.81
50368;BME280;36281;34.132;-118.018;2022-10-18T00:42:58;99858.84;;;26.49;45.19
50368;BME280;36281;34.132;-118.018;2022-10-18T00:45:28;99858.84;;;26.49;45.19
50368;BME280;36281;34.132;-118.018;2022-10-18T00:47:57;99862.63;;;26.40;45.63
50368;BME280;36281;34.132;-118.018;2022-10-18T00:50:26;99861.31;;;26.28;46.20
50368;BME280;36281;34.132;-118.018;2022-10-18T00:52:56;99861.28;;;26.20;46.47
50368;BME280;36281;34.132;-118.018;2022-10-18T00:55:26;99873.38;;;26.05;47.20
50368;BME280;36281;34.132;-118.018;2022-10-18T00:57:54;99876.06;;;25.88;48.01
50368;BME280;36281;34.132;-118.018;2022-10-18T01:00:23;99874.88;;;25.80;48.29
50368;BME280;36281;34.132;-118.018;2022-10-18T01:02:53;99876.91;;;25.74;48.92
50368;BME280;36281;34.132;-118.018;2022-10-18T01:05:21;99888.22;;;25.68;49.26
50368;BME280;36281;34.132;-118.018;2022-10-18T01:08:00;99894.56;;;25.63;49.24
50368;BME280;36281;34.132;-118.018;2022-10-18T01:10:32;99894.53;;;25.55;49.25
50368;BME280;36281;34.132;-118.018;2022-10-18T01:13:07;99893.38;;;25.47;49.56
50368;BME280;36281;34.132;-118.018;2022-10-18T01:15:41;99897.63;;;25.39;49.76
50368;BME280;36281;34.132;-118.018;2022-10-18T01:18:13;99900.09;;;25.27;50.84
50368;BME280;36281;34.132;-118.018;2022-10-18T01:21:03;99908.03;;;25.23;51.09
50368;BME280;36281;34.132;-118.018;2022-10-18T01:26:25;99908.31;;;24.99;52.03
50368;BME280;36281;34.132;-118.018;2022-10-18T01:29:01;99892.97;;;24.95;52.00
50368;BME280;36281;34.132;-118.018;2022-10-18T01:31:39;99897.38;;;24.91;52.12
50368;BME280;36281;34.132;-118.018;2022-10-18T01:34:11;99898.25;;;24.78;52.35
50368;BME280;36281;34.132;-118.018;2022-10-18T01:36:41;99905.19;;;24.70;53.23
50368;BME280;36281;34.132;-118.018;2022-10-18T01:39:11;99898.75;;;24.66;53.18
50368;BME280;36281;34.132;-118.018;2022-10-18T01:41:42;99905.41;;;24.60;53.10
50368;BME280;36281;34.132;-118.018;2022-10-18T01:44:11;99901.00;;;24.50;53.16
50368;BME280;36281;34.132;-118.018;2022-10-18T01:46:43;99905.53;;;24.41;53.93
50368;BME280;36281;34.132;-118.018;2022-10-18T01:49:11;99911.03;;;24.36;54.28
50368;BME280;36281;34.132;-118.018;2022-10-18T01:51:39;99911.22;;;24.25;53.71
50368;BME280;36281;34.132;-118.018;2022-10-18T01:54:08;99908.13;;;24.18;54.07
50368;BME280;36281;34.132;-118.018;2022-10-18T01:56:38;99919.06;;;24.13;54.23
50368;BME280;36281;34.132;-118.018;2022-10-18T01:59:11;99919.44;;;24.07;54.47
50368;BME280;36281;34.132;-118.018;2022-10-18T02:01:48;99924.75;;;23.98;54.92
50368;BME280;36281;34.132;-118.018;2022-10-18T02:04:21;99923.84;;;23.89;55.44
50368;BME280;36281;34.132;-118.018;2022-10-18T02:06:52;99923.41;;;23.82;55.77
50368;BME280;36281;34.132;-118.018;2022-10-18T02:09:24;99930.00;;;23.76;55.73
50368;BME280;36281;34.132;-118.018;2022-10-18T02:11:57;99935.50;;;23.70;55.51
50368;BME280;36281;34.132;-118.018;2022-10-18T02:14:26;99935.28;;;23.67;56.54
50368;BME280;36281;34.132;-118.018;2022-10-18T02:16:57;99948.06;;;23.61;56.08
50368;BME280;36281;34.132;-118.018;2022-10-18T02:19:27;99939.25;;;23.56;55.86
50368;BME280;36281;34.132;-118.018;2022-10-18T02:21:57;99960.25;;;23.45;56.08
50368;BME280;36281;34.132;-118.018;2022-10-18T02:24:28;99954.41;;;23.38;56.21
50368;BME280;36281;34.132;-118.018;2022-10-18T02:26:58;99953.97;;;23.31;56.88
50368;BME280;36281;34.132;-118.018;2022-10-18T02:29:26;99961.66;;;23.24;57.74
50368;BME280;36281;34.132;-118.018;2022-10-18T02:31:58;99968.44;;;23.21;57.32
50368;BME280;36281;34.132;-118.018;2022-10-18T02:34:31;99970.94;;;23.17;57.59
50368;BME280;36281;34.132;-118.018;2022-10-18T02:37:02;99974.22;;;23.14;57.56
50368;BME280;36281;34.132;-118.018;2022-10-18T02:39:33;99972.09;;;23.11;57.46
50368;BME280;36281;34.132;-118.018;2022-10-18T02:42:02;99971.66;;;23.04;57.70
50368;BME280;36281;34.132;-118.018;2022-10-18T02:44:33;99982.00;;;22.97;58.22
50368;BME280;36281;34.132;-118.018;2022-10-18T02:47:03;99952.34;;;22.73;58.59
50368;BME280;36281;34.132;-118.018;2022-10-18T02:49:32;99982.13;;;22.87;58.70
50368;BME280;36281;34.132;-118.018;2022-10-18T02:52:00;99990.59;;;22.80;59.05
50368;BME280;36281;34.132;-118.018;2022-10-18T02:54:28;99990.66;;;22.75;59.05
50368;BME280;36281;34.132;-118.018;2022-10-18T02:56:56;99979.97;;;22.65;60.18
50368;BME280;36281;34.132;-118.018;2022-10-18T02:59:25;99989.19;;;22.64;59.91
50368;BME280;36281;34.132;-118.018;2022-10-18T03:01:53;100000.34;;;22.52;60.59
50368;BME280;36281;34.132;-118.018;2022-10-18T03:04:23;99998.56;;;22.42;60.75
50368;BME280;36281;34.132;-118.018;2022-10-18T03:06:51;100005.41;;;22.35;60.84
50368;BME280;36281;34.132;-118.018;2022-10-18T03:09:19;100001.69;;;22.31;60.97
50368;BME280;36281;34.132;-118.018;2022-10-18T03:11:47;99995.53;;;22.25;61.44
50368;BME280;36281;34.132;-118.018;2022-10-18T03:14:16;99997.53;;;22.14;61.88
50368;BME280;36281;34.132;-118.018;2022-10-18T03:16:44;99999.78;;;22.02;62.71
50368;BME280;36281;34.132;-118.018;2022-10-18T03:19:12;100013.25;;;22.02;62.72
50368;BME280;36281;34.132;-118.018;2022-10-18T03:21:42;100007.94;;;21.92;63.35
50368;BME280;36281;34.132;-118.018;2022-10-18T03:24:10;100016.72;;;21.79;64.14
50368;BME280;36281;34.132;-118.018;2022-10-18T03:26:38;100014.81;;;21.79;64.38
50368;BME280;36281;34.132;-118.018;2022-10-18T03:29:07;100005.63;;;21.80;64.38
50368;BME280;36281;34.132;-118.018;2022-10-18T03:31:36;100017.25;;;21.76;64.37
50368;BME280;36281;34.132;-118.018;2022-10-18T03:34:04;100008.75;;;21.63;64.66
50368;BME280;36281;34.132;-118.018;2022-10-18T03:36:32;100017.09;;;21.62;65.33
50368;BME280;36281;34.132;-118.018;2022-10-18T03:39:02;100014.19;;;21.58;64.92
50368;BME280;36281;34.132;-118.018;2022-10-18T03:41:30;100017.94;;;21.57;65.23
50368;BME280;36281;34.132;-118.018;2022-10-18T03:43:59;100014.75;;;21.50;64.79
50368;BME280;36281;34.132;-118.018;2022-10-18T03:46:27;100016.97;;;21.38;65.35
50368;BME280;36281;34.132;-118.018;2022-10-18T03:48:55;100010.31;;;21.30;65.71
50368;BME280;36281;34.132;-118.018;2022-10-18T03:51:23;100017.28;;;21.36;66.03
50368;BME280;36281;34.132;-118.018;2022-10-18T03:53:51;100013.56;;;21.22;66.28
50368;BME280;36281;34.132;-118.018;2022-10-18T03:56:21;100016.78;;;21.24;66.41
50368;BME280;36281;34.132;-118.018;2022-10-18T03:58:49;100016.25;;;21.22;66.65
50368;BME280;36281;34.132;-118.018;2022-10-18T04:01:18;100025.75;;;21.09;67.48
50368;BME280;36281;34.132;-118.018;2022-10-18T04:03:46;100019.00;;;21.12;67.46
50368;BME280;36281;34.132;-118.018;2022-10-18T04:06:14;100014.69;;;21.11;67.62
50368;BME280;36281;34.132;-118.018;2022-10-18T04:08:42;100013.66;;;21.02;67.91
50368;BME280;36281;34.132;-118.018;2022-10-18T04:11:10;100011.53;;;21.04;68.29
50368;BME280;36281;34.132;-118.018;2022-10-18T04:13:40;100023.38;;;20.98;68.23
50368;BME280;36281;34.132;-118.018;2022-10-18T04:16:09;100026.63;;;20.95;68.60
50368;BME280;36281;34.132;-118.018;2022-10-18T04:18:37;100031.25;;;20.89;68.94
50368;BME280;36281;34.132;-118.018;2022-10-18T04:21:05;100032.59;;;20.86;69.30
50368;BME280;36281;34.132;-118.018;2022-10-18T04:23:33;100026.47;;;20.71;69.56
50368;BME280;36281;34.132;-118.018;2022-10-18T04:26:04;100021.06;;;20.76;69.96
50368;BME280;36281;34.132;-118.018;2022-10-18T04:28:32;100032.16;;;20.64;70.01
50368;BME280;36281;34.132;-118.018;2022-10-18T04:31:02;100024.31;;;20.62;70.11
50368;BME280;36281;34.132;-118.018;2022-10-18T04:33:31;100032.41;;;20.62;70.46
50368;BME280;36281;34.132;-118.018;2022-10-18T04:35:59;100039.69;;;20.57;70.67
50368;BME280;36281;34.132;-118.018;2022-10-18T04:38:27;100041.03;;;20.59;70.84
50368;BME280;36281;34.132;-118.018;2022-10-18T04:40:55;100039.16;;;20.60;70.84
50368;BME280;36281;34.132;-118.018;2022-10-18T04:43:23;100048.03;;;20.55;71.34
50368;BME280;36281;34.132;-118.018;2022-10-18T04:45:52;100049.63;;;20.46;71.77
50368;BME280;36281;34.132;-118.018;2022-10-18T04:48:21;100043.19;;;20.47;71.78
50368;BME280;36281;34.132;-118.018;2022-10-18T04:50:50;100037.28;;;20.45;71.81
50368;BME280;36281;34.132;-118.018;2022-10-18T04:53:18;100046.97;;;20.41;72.08
50368;BME280;36281;34.132;-118.018;2022-10-18T04:55:46;100036.22;;;20.36;72.28
50368;BME280;36281;34.132;-118.018;2022-10-18T04:58:15;100040.25;;;20.23;72.71
50368;BME280;36281;34.132;-118.018;2022-10-18T05:00:44;100030.88;;;20.16;73.21
50368;BME280;36281;34.132;-118.018;2022-10-18T05:03:12;100033.84;;;20.14;73.42
50368;BME280;36281;34.132;-118.018;2022-10-18T05:06:05;100041.34;;;20.22;72.97
50368;BME280;36281;34.132;-118.018;2022-10-18T05:08:33;100040.00;;;20.14;72.97
50368;BME280;36281;34.132;-118.018;2022-10-18T05:11:02;100038.94;;;20.10;73.51
50368;BME280;36281;34.132;-118.018;2022-10-18T05:13:31;100042.16;;;20.07;73.49
50368;BME280;36281;34.132;-118.018;2022-10-18T05:15:59;100038.38;;;19.98;73.75
50368;BME280;36281;34.132;-118.018;2022-10-18T05:18:27;100045.41;;;20.04;73.84
50368;BME280;36281;34.132;-118.018;2022-10-18T05:20:55;100052.91;;;20.07;73.92
50368;BME280;36281;34.132;-118.018;2022-10-18T05:23:25;100049.13;;;20.08;73.92
50368;BME280;36281;34.132;-118.018;2022-10-18T05:25:54;100050.22;;;20.02;73.71
50368;BME280;36281;34.132;-118.018;2022-10-18T05:28:22;100052.38;;;20.00;74.02
50368;BME280;36281;34.132;-118.018;2022-10-18T05:31:08;100051.03;;;19.93;74.49
50368;BME280;36281;34.132;-118.018;2022-10-18T05:33:36;100055.31;;;19.83;74.67
50368;BME280;36281;34.132;-118.018;2022-10-18T05:36:05;100054.28;;;19.84;74.68
50368;BME280;36281;34.132;-118.018;2022-10-18T05:38:36;100061.53;;;19.89;74.67
50368;BME280;36281;34.132;-118.018;2022-10-18T05:41:05;100055.59;;;19.87;74.61
50368;BME280;36281;34.132;-118.018;2022-10-18T05:43:33;100057.19;;;19.78;74.94
50368;BME280;36281;34.132;-118.018;2022-10-18T05:46:02;100059.34;;;19.71;75.48
50368;BME280;36281;34.132;-118.018;2022-10-18T05:48:33;100063.38;;;19.78;75.36
50368;BME280;36281;34.132;-118.018;2022-10-18T05:51:01;100058.28;;;19.82;75.06
50368;BME280;36281;34.132;-118.018;2022-10-18T05:53:29;100071.19;;;19.80;75.05
50368;BME280;36281;34.132;-118.018;2022-10-18T05:56:04;100073.31;;;19.78;74.99
50368;BME280;36281;34.132;-118.018;2022-10-18T05:58:33;100070.13;;;19.76;75.03
50368;BME280;36281;34.132;-118.018;2022-10-18T06:01:01;100069.31;;;19.70;75.55
50368;BME280;36281;34.132;-118.018;2022-10-18T06:03:29;100070.63;;;19.68;75.56
50368;BME280;36281;34.132;-118.018;2022-10-18T06:05:58;100072.50;;;19.62;75.61
50368;BME280;36281;34.132;-118.018;2022-10-18T06:08:26;100081.63;;;19.61;75.90
50368;BME280;36281;34.132;-118.018;2022-10-18T06:10:55;100077.81;;;19.52;76.20
50368;BME280;36281;34.132;-118.018;2022-10-18T06:13:25;100077.88;;;19.62;76.18
50368;BME280;36281;34.132;-118.018;2022-10-18T06:15:55;100077.03;;;19.51;76.28
50368;BME280;36281;34.132;-118.018;2022-10-18T06:18:24;100077.00;;;19.46;76.46
50368;BME280;36281;34.132;-118.018;2022-10-18T06:20:55;100068.94;;;19.41;76.75
50368;BME280;36281;34.132;-118.018;2022-10-18T06:23:23;100068.66;;;19.43;76.71
50368;BME280;36281;34.132;-118.018;2022-10-18T06:25:51;100056.84;;;19.49;76.59
50368;BME280;36281;34.132;-118.018;2022-10-18T06:28:19;100063.06;;;19.49;76.58
50368;BME280;36281;34.132;-118.018;2022-10-18T06:30:49;100055.81;;;19.50;76.57
50368;BME280;36281;34.132;-118.018;2022-10-18T06:33:17;100059.31;;;19.50;76.28
50368;BME280;36281;34.132;-118.018;2022-10-18T06:35:52;100057.94;;;19.48;76.34
50368;BME280;36281;34.132;-118.018;2022-10-18T06:38:21;100056.59;;;19.45;76.32
50368;BME280;36281;34.132;-118.018;2022-10-18T06:40:49;100053.91;;;19.40;76.53
50368;BME280;36281;34.132;-118.018;2022-10-18T06:43:17;100052.25;;;19.34;76.44
50368;BME280;36281;34.132;-118.018;2022-10-18T06:45:47;100051.19;;;19.30;76.64
50368;BME280;36281;34.132;-118.018;2022-10-18T06:48:17;100054.66;;;19.25;76.86
50368;BME280;36281;34.132;-118.018;2022-10-18T06:50:51;100057.59;;;19.24;77.27
50368;BME280;36281;34.132;-118.018;2022-10-18T06:53:19;100052.81;;;19.31;77.12
50368;BME280;36281;34.132;-118.018;2022-10-18T06:55:47;100053.88;;;19.30;77.22
50368;BME280;36281;34.132;-118.018;2022-10-18T06:58:15;100056.56;;;19.30;76.79
50368;BME280;36281;34.132;-118.018;2022-10-18T07:00:44;100055.47;;;19.21;76.80
50368;BME280;36281;34.132;-118.018;2022-10-18T07:03:19;100057.59;;;19.24;77.17
50368;BME280;36281;34.132;-118.018;2022-10-18T07:05:48;100052.22;;;19.19;77.13
50368;BME280;36281;34.132;-118.018;2022-10-18T07:08:16;100055.97;;;19.18;77.39
50368;BME280;36281;34.132;-118.018;2022-10-18T07:10:49;100060.25;;;19.14;77.57
50368;BME280;36281;34.132;-118.018;2022-10-18T07:13:18;100056.78;;;19.18;77.81
50368;BME280;36281;34.132;-118.018;2022-10-18T07:16:01;100053.84;;;19.20;77.55
50368;BME280;36281;34.132;-118.018;2022-10-18T07:18:32;100052.50;;;19.17;77.59
50368;BME280;36281;34.132;-118.018;2022-10-18T07:21:01;100051.16;;;19.20;77.33
50368;BME280;36281;34.132;-118.018;2022-10-18T07:23:31;100057.59;;;19.19;77.21
50368;BME280;36281;34.132;-118.018;2022-10-18T07:25:59;100048.97;;;19.11;77.70
50368;BME280;36281;34.132;-118.018;2022-10-18T07:28:29;100054.34;;;19.06;77.74
50368;BME280;36281;34.132;-118.018;2022-10-18T07:31:03;100059.66;;;18.96;77.61
50368;BME280;36281;34.132;-118.018;2022-10-18T07:33:33;100059.66;;;18.96;77.67
50368;BME280;36281;34.132;-118.018;2022-10-18T07:36:02;100060.72;;;18.90;77.90
50368;BME280;36281;34.132;-118.018;2022-10-18T07:38:30;100059.09;;;18.94;78.03
50368;BME280;36281;34.132;-118.018;2022-10-18T07:40:59;100056.41;;;18.94;78.24
50368;BME280;36281;34.132;-118.018;2022-10-18T07:43:28;100059.06;;;18.89;78.38
50368;BME280;36281;34.132;-118.018;2022-10-18T07:45:56;100058.81;;;18.85;78.30
50368;BME280;36281;34.132;-118.018;2022-10-18T07:48:25;100056.91;;;18.81;78.23
50368;BME280;36281;34.132;-118.018;2022-10-18T07:50:56;100052.66;;;18.85;78.68
50368;BME280;36281;34.132;-118.018;2022-10-18T07:53:24;100042.97;;;18.84;78.62
50368;BME280;36281;34.132;-118.018;2022-10-18T07:55:55;100055.25;;;18.70;78.72
50368;BME280;36281;34.132;-118.018;2022-10-18T07:58:23;100067.06;;;18.74;79.03
50368;BME280;36281;34.132;-118.018;2022-10-18T08:00:51;100059.28;;;18.72;78.86
50368;BME280;36281;34.132;-118.018;2022-10-18T08:03:20;100059.56;;;18.71;78.71
50368;BME280;36281;34.132;-118.018;2022-10-18T08:05:51;100055.44;;;18.63;78.60
50368;BME280;36281;34.132;-118.018;2022-10-18T08:08:22;100061.06;;;18.62;78.61
50368;BME280;36281;34.132;-118.018;2022-10-18T08:10:50;100059.94;;;18.52;79.14
50368;BME280;36281;34.132;-118.018;2022-10-18T08:13:19;100060.44;;;18.49;79.33
50368;BME280;36281;34.132;-118.018;2022-10-18T08:15:48;100057.75;;;18.49;79.47
50368;BME280;36281;34.132;-118.018;2022-10-18T08:18:16;100053.78;;;18.52;78.99
50368;BME280;36281;34.132;-118.018;2022-10-18T08:20:44;100054.53;;;18.42;79.43
50368;BME280;36281;34.132;-118.018;2022-10-18T08:23:12;100043.50;;;18.39;79.64
50368;BME280;36281;34.132;-118.018;2022-10-18T08:25:42;100049.94;;;18.38;79.66
50368;BME280;36281;34.132;-118.018;2022-10-18T08:28:10;100062.84;;;18.41;79.61
50368;BME280;36281;34.132;-118.018;2022-10-18T08:30:40;100049.66;;;18.39;79.94
50368;BME280;36281;34.132;-118.018;2022-10-18T08:33:08;100049.16;;;18.42;79.87
50368;BME280;36281;34.132;-118.018;2022-10-18T08:35:36;100046.78;;;18.46;79.78
50368;BME280;36281;34.132;-118.018;2022-10-18T08:38:05;100045.66;;;18.42;79.62
50368;BME280;36281;34.132;-118.018;2022-10-18T08:40:44;100045.63;;;18.37;79.66
50368;BME280;36281;34.132;-118.018;2022-10-18T08:43:13;100053.09;;;18.34;79.83
50368;BME280;36281;34.132;-118.018;2022-10-18T08:45:47;100058.78;;;18.38;79.59
50368;BME280;36281;34.132;-118.018;2022-10-18T08:48:17;100054.72;;;18.30;79.43
50368;BME280;36281;34.132;-118.018;2022-10-18T08:50:48;100053.06;;;18.29;79.54
50368;BME280;36281;34.132;-118.018;2022-10-18T08:53:18;100054.41;;;18.27;79.54
50368;BME280;36281;34.132;-118.018;2022-10-18T08:55:49;100057.06;;;18.22;80.00
50368;BME280;36281;34.132;-118.018;2022-10-18T08:58:20;100062.34;;;18.12;80.38
50368;BME280;36281;34.132;-118.018;2022-10-18T09:00:51;100062.88;;;18.14;80.42
50368;BME280;36281;34.132;-118.018;2022-10-18T09:03:25;100058.94;;;18.21;79.83
50368;BME280;36281;34.132;-118.018;2022-10-18T09:06:00;100062.38;;;18.17;79.76
50368;BME280;36281;34.132;-118.018;2022-10-18T09:08:40;100065.88;;;18.17;79.64
50368;BME280;36281;34.132;-118.018;2022-10-18T09:11:17;100071.97;;;18.07;79.97
50368;BME280;36281;34.132;-118.018;2022-10-18T09:13:54;100067.13;;;18.09;80.06
50368;BME280;36281;34.132;-118.018;2022-10-18T09:16:27;100063.63;;;18.04;79.82
50368;BME280;36281;34.132;-118.018;2022-10-18T09:19:01;100064.41;;;18.04;80.20
50368;BME280;36281;34.132;-118.018;2022-10-18T09:21:36;100064.41;;;18.04;79.94
50368;BME280;36281;34.132;-118.018;2022-10-18T09:24:09;100060.41;;;18.02;79.78
50368;BME280;36281;34.132;-118.018;2022-10-18T09:26:43;100065.75;;;18.02;79.89
50368;BME280;36281;34.132;-118.018;2022-10-18T09:29:17;100056.34;;;17.99;79.88
50368;BME280;36281;34.132;-118.018;2022-10-18T09:31:51;100053.16;;;18.02;79.91
50368;BME280;36281;34.132;-118.018;2022-10-18T09:34:24;100052.34;;;18.02;79.97
50368;BME280;36281;34.132;-118.018;2022-10-18T09:36:55;100042.13;;;17.99;79.91
50368;BME280;36281;34.132;-118.018;2022-10-18T09:39:24;100049.03;;;17.90;80.28
50368;BME280;36281;34.132;-118.018;2022-10-18T09:41:57;100044.72;;;17.89;80.37
50368;BME280;36281;34.132;-118.018;2022-10-18T09:44:28;100039.41;;;17.94;80.08
50368;BME280;36281;34.132;-118.018;2022-10-18T09:46:57;100041.28;;;17.93;80.02
50368;BME280;36281;34.132;-118.018;2022-10-18T09:49:28;100037.75;;;17.88;80.00
50368;BME280;36281;34.132;-118.018;2022-10-18T09:51:57;100035.81;;;17.78;80.78
50368;BME280;36281;34.132;-118.018;2022-10-18T09:54:28;100035.31;;;17.81;80.74
50368;BME280;36281;34.132;-118.018;2022-10-18T09:57:02;100029.38;;;17.79;80.85
50368;BME280;36281;34.132;-118.018;2022-10-18T09:59:33;100020.69;;;17.67;80.48
50368;BME280;36281;34.132;-118.018;2022-10-18T10:02:03;100038.97;;;17.75;80.80
50368;BME280;36281;34.132;-118.018;2022-10-18T10:04:31;100019.53;;;17.57;81.03
50368;BME280;36281;34.132;-118.018;2022-10-18T10:06:59;100036.19;;;17.65;81.00
50368;BME280;36281;34.132;-118.018;2022-10-18T10:09:28;100042.28;;;17.60;81.27
50368;BME280;36281;34.132;-118.018;2022-10-18T10:11:57;100031.34;;;17.62;80.95
50368;BME280;36281;34.132;-118.018;2022-10-18T10:14:27;100023.22;;;17.51;81.00
50368;BME280;36281;34.132;-118.018;2022-10-18T10:16:57;100038.31;;;17.63;81.23
50368;BME280;36281;34.132;-118.018;2022-10-18T10:19:26;100037.97;;;17.54;81.25
50368;BME280;36281;34.132;-118.018;2022-10-18T10:21:57;100032.81;;;17.47;81.49
50368;BME280;36281;34.132;-118.018;2022-10-18T10:24:27;100032.59;;;17.54;81.48
50368;BME280;36281;34.132;-118.018;2022-10-18T10:26:58;100024.88;;;17.57;81.02
50368;BME280;36281;34.132;-118.018;2022-10-18T10:32:15;100031.00;;;17.53;80.99
50368;BME280;36281;34.132;-118.018;2022-10-18T10:34:43;100021.09;;;17.53;81.00
50368;BME280;36281;34.132;-118.018;2022-10-18T10:37:25;100029.56;;;17.45;81.32
50368;BME280;36281;34.132;-118.018;2022-10-18T10:40:16;100020.53;;;17.51;81.18
50368;BME280;36281;34.132;-118.018;2022-10-18T10:42:50;100021.66;;;17.55;80.87
50368;BME280;36281;34.132;-118.018;2022-10-18T10:45:26;100024.88;;;17.57;80.68
50368;BME280;36281;34.132;-118.018;2022-10-18T10:48:02;100023.50;;;17.55;80.87
50368;BME280;36281;34.132;-118.018;2022-10-18T10:50:31;100012.91;;;17.38;81.23
50368;BME280;36281;34.132;-118.018;2022-10-18T10:55:58;100030.59;;;17.39;80.86
50368;BME280;36281;34.132;-118.018;2022-10-18T10:58:27;100027.91;;;17.39;80.99
50368;BME280;36281;34.132;-118.018;2022-10-18T11:00:57;100032.97;;;17.36;81.29
50368;BME280;36281;34.132;-118.018;2022-10-18T11:03:27;100034.78;;;17.30;81.55
50368;BME280;36281;34.132;-118.018;2022-10-18T11:05:57;100030.47;;;17.29;81.58
50368;BME280;36281;34.132;-118.018;2022-10-18T11:08:28;100032.63;;;17.27;81.60
50368;BME280;36281;34.132;-118.018;2022-10-18T11:11:00;100042.78;;;17.30;81.25
50368;BME280;36281;34.132;-118.018;2022-10-18T11:13:35;100045.47;;;17.30;80.83
50368;BME280;36281;34.132;-118.018;2022-10-18T11:16:12;100037.38;;;17.25;80.86
50368;BME280;36281;34.132;-118.018;2022-10-18T11:18:43;100040.59;;;17.22;81.29
50368;BME280;36281;34.132;-118.018;2022-10-18T11:21:14;100039.16;;;17.14;81.38
50368;BME280;36281;34.132;-118.018;2022-10-18T11:23:43;100040.75;;;17.15;81.34
50368;BME280;36281;34.132;-118.018;2022-10-18T11:26:17;100044.13;;;17.05;81.60
50368;BME280;36281;34.132;-118.018;2022-10-18T11:28:56;100047.13;;;17.09;81.81
50368;BME280;36281;34.132;-118.018;2022-10-18T11:31:29;100049.31;;;17.12;81.44
50368;BME280;36281;34.132;-118.018;2022-10-18T11:34:05;100049.78;;;17.09;81.17
50368;BME280;36281;34.132;-118.018;2022-10-18T11:36:39;100051.66;;;17.09;81.31
50368;BME280;36281;34.132;-118.018;2022-10-18T11:39:22;100059.44;;;17.10;81.18
50368;BME280;36281;34.132;-118.018;2022-10-18T11:41:56;100067.19;;;17.07;81.32
50368;BME280;36281;34.132;-118.018;2022-10-18T11:44:31;100065.31;;;17.07;81.25
50368;BME280;36281;34.132;-118.018;2022-10-18T11:47:06;100061.75;;;17.01;81.33
50368;BME280;36281;34.132;-118.018;2022-10-18T11:50:05;100067.84;;;16.97;81.81
50368;BME280;36281;34.132;-118.018;2022-10-18T11:52:37;100066.78;;;16.98;81.77
50368;BME280;36281;34.132;-118.018;2022-10-18T11:55:11;100070.16;;;16.88;82.11
50368;BME280;36281;34.132;-118.018;2022-10-18T11:57:44;100067.97;;;16.85;82.36
50368;BME280;36281;34.132;-118.018;2022-10-18T12:06:00;100076.25;;;16.84;82.61
50368;BME280;36281;34.132;-118.018;2022-10-18T12:08:32;100074.88;;;16.81;82.53
50368;BME280;36281;34.132;-118.018;2022-10-18T12:11:04;100073.56;;;16.84;82.60
50368;BME280;36281;34.132;-118.018;2022-10-18T12:13:35;100076.03;;;16.90;82.54
50368;BME280;36281;34.132;-118.018;2022-10-18T12:16:04;100077.19;;;16.94;82.37
50368;BME280;36281;34.132;-118.018;2022-10-18T12:18:33;100081.41;;;16.90;82.55
50368;BME280;36281;34.132;-118.018;2022-10-18T12:21:04;100084.41;;;16.94;82.49
50368;BME280;36281;34.132;-118.018;2022-10-18T12:23:35;100090.25;;;16.91;82.51
50368;BME280;36281;34.132;-118.018;2022-10-18T12:26:05;100088.88;;;16.88;82.26
50368;BME280;36281;34.132;-118.018;2022-10-18T12:28:36;100080.47;;;16.79;82.49
50368;BME280;36281;34.132;-118.018;2022-10-18T12:31:12;100100.00;;;16.80;82.66
50368;BME280;36281;34.132;-118.018;2022-10-18T12:33:46;100099.91;;;16.75;82.59
50368;BME280;36281;34.132;-118.018;2022-10-18T12:36:21;100109.06;;;16.79;82.61
50368;BME280;36281;34.132;-118.018;2022-10-18T12:38:55;100102.66;;;16.80;83.18
50368;BME280;36281;34.132;-118.018;2022-10-18T12:41:25;100105.13;;;16.82;83.04
50368;BME280;36281;34.132;-118.018;2022-10-18T12:43:55;100099.63;;;16.71;83.12
50368;BME280;36281;34.132;-118.018;2022-10-18T12:46:35;100099.28;;;16.68;82.98
50368;BME280;36281;34.132;-118.018;2022-10-18T12:49:09;100104.97;;;16.71;82.97
50368;BME280;36281;34.132;-118.018;2022-10-18T12:51:45;100105.78;;;16.72;83.16
50368;BME280;36281;34.132;-118.018;2022-10-18T12:54:16;100093.13;;;16.50;83.44